Time;durP1;ratioP1;P1;durP2;ratioP2;P2;SDS_P1;SDS_P2;PMS_P1;PMS_P2;Temp;Humidity;BMP_temperature;BMP_pressure;BME280_temperature;BME280_humidity;BME280_pressure;Samples;Min_cycle;Max_cycle;Signal;HPM_P1;HPM_P2
2021/01/27 00:02:13;;;;;;;2.97;1.88;;;;;;;18.81;44.86;101489.00;5023140;28;20426;-74
2021/01/27 00:04:40;;;;;;;2.88;1.65;;;;;;;18.79;44.92;101478.50;5000161;28;21027;-73
2021/01/27 00:07:05;;;;;;;2.50;1.92;;;;;;;18.79;45.01;101480.25;4998832;28;20025;-74
2021/01/27 00:09:30;;;;;;;3.00;1.83;;;;;;;18.77;44.82;101469.75;5025974;28;20091;-74
2021/01/27 00:11:56;;;;;;;2.05;1.70;;;;;;;18.76;44.93;101469.75;5010470;28;20060;-70
2021/01/27 00:14:22;;;;;;;2.83;1.88;;;;;;;18.77;44.92;101455.78;5019099;28;20038;-74
2021/01/27 00:16:47;;;;;;;3.20;2.05;;;;;;;18.75;44.79;101452.25;5020659;28;20715;-74
2021/01/27 00:19:13;;;;;;;2.15;1.50;;;;;;;18.74;44.77;101442.66;5019645;28;20044;-70
2021/01/27 00:21:38;;;;;;;3.17;1.70;;;;;;;18.72;44.79;101437.41;5019180;28;20057;-70
2021/01/27 00:24:04;;;;;;;2.88;1.92;;;;;;;18.74;44.91;101440.03;5005112;28;20026;-70
2021/01/27 00:26:30;;;;;;;1.90;1.42;;;;;;;18.73;44.91;101446.13;4999520;28;20034;-74
2021/01/27 00:28:55;;;;;;;2.25;1.40;;;;;;;18.71;44.69;101437.41;5019272;28;20026;-73
2021/01/27 00:31:20;;;;;;;2.45;1.63;;;;;;;18.70;44.96;101438.25;5012397;28;20069;-74
2021/01/27 00:33:46;;;;;;;3.15;2.08;;;;;;;18.71;44.72;101440.00;5013093;28;20026;-74
2021/01/27 00:36:11;;;;;;;3.78;1.88;;;;;;;18.69;44.80;101432.19;5001933;28;20040;-70
2021/01/27 00:38:36;;;;;;;3.10;2.05;;;;;;;18.68;44.68;101427.81;5014536;28;20373;-70
2021/01/27 00:41:02;;;;;;;2.15;1.50;;;;;;;18.64;44.73;101423.41;5000140;28;20049;-74
2021/01/27 00:43:27;;;;;;;2.60;1.70;;;;;;;18.67;44.96;101431.28;5000335;28;20037;-73
2021/01/27 00:45:54;;;;;;;2.30;1.80;;;;;;;18.65;44.93;101427.78;5016183;28;20041;-74
2021/01/27 00:48:19;;;;;;;3.47;2.25;;;;;;;18.65;44.99;101425.16;5021181;28;20036;-70
2021/01/27 00:50:45;;;;;;;2.50;1.55;;;;;;;18.65;44.69;101414.69;5023117;28;20041;-74
2021/01/27 00:53:11;;;;;;;1.92;1.33;;;;;;;18.61;44.71;101402.44;5015280;28;20029;-74
2021/01/27 00:55:37;;;;;;;2.17;1.83;;;;;;;18.63;44.73;101391.97;5019693;28;20025;-74
2021/01/27 00:58:03;;;;;;;2.47;1.75;;;;;;;18.63;44.80;101382.38;5007616;28;20048;-74
2021/01/27 01:00:31;;;;;;;2.95;1.70;;;;;;;18.62;44.72;101379.75;5016413;28;20031;-74
2021/01/27 01:02:57;;;;;;;3.85;1.70;;;;;;;18.61;44.62;101370.13;5026358;28;20025;-75
2021/01/27 01:05:29;;;;;;;3.03;1.83;;;;;;;18.59;44.89;101370.13;5016144;28;20068;-74
2021/01/27 01:07:54;;;;;;;2.58;1.58;;;;;;;18.56;44.52;101351.78;5021821;28;20033;-74
2021/01/27 01:10:27;;;;;;;2.78;1.80;;;;;;;18.58;44.73;101350.03;5016650;28;20064;-74
2021/01/27 01:12:53;;;;;;;3.78;1.85;;;;;;;18.60;44.82;101350.03;5018306;28;20538;-74
2021/01/27 01:15:19;;;;;;;2.30;1.70;;;;;;;18.57;44.73;101337.78;5027404;28;20033;-74
2021/01/27 01:17:45;;;;;;;3.83;1.95;;;;;;;18.55;44.90;101326.44;5031663;28;20490;-74
2021/01/27 01:20:14;;;;;;;1.92;1.38;;;;;;;18.56;44.73;101323.81;5023883;28;20025;-74
2021/01/27 01:22:45;;;;;;;2.58;1.77;;;;;;;18.54;44.52;101304.63;4998051;28;20036;-74
2021/01/27 01:25:11;;;;;;;2.45;1.50;;;;;;;18.53;44.59;101297.63;5019131;28;20356;-74
2021/01/27 01:27:37;;;;;;;3.10;2.00;;;;;;;18.55;44.52;101308.09;5027530;28;20057;-74
2021/01/27 01:30:09;;;;;;;2.17;1.60;;;;;;;18.50;44.67;101299.34;5017572;28;20029;-75
2021/01/27 01:32:34;;;;;;;2.30;1.80;;;;;;;18.51;44.64;101304.59;5021120;28;20021;-74
2021/01/27 01:35:00;;;;;;;2.28;1.73;;;;;;;18.54;44.22;101309.84;5015865;28;20037;-70
2021/01/27 01:37:25;;;;;;;2.63;1.95;;;;;;;18.52;44.56;101308.09;5018000;28;20056;-70
2021/01/27 01:39:51;;;;;;;2.90;1.80;;;;;;;18.51;44.61;101307.22;5017433;28;20364;-74
2021/01/27 01:42:19;;;;;;;2.10;1.58;;;;;;;18.52;44.67;101300.25;4994993;28;20049;-74
2021/01/27 01:44:44;;;;;;;2.17;1.73;;;;;;;18.50;44.61;101286.25;4996891;28;20048;-74
2021/01/27 01:47:09;;;;;;;2.67;2.10;;;;;;;18.49;44.49;101287.13;5016252;28;20476;-74
2021/01/27 01:49:35;;;;;;;2.15;1.38;;;;;;;18.48;44.67;101277.53;5022244;28;20495;-74
2021/01/27 01:52:01;;;;;;;2.90;2.03;;;;;;;18.48;44.61;101275.78;5021907;28;20030;-74
2021/01/27 01:54:39;;;;;;;2.90;1.67;;;;;;;18.46;44.47;101274.03;5023493;28;20104;-74
2021/01/27 01:57:11;;;;;;;2.70;1.67;;;;;;;18.46;44.47;101272.28;5020159;28;20091;-74
2021/01/27 01:59:39;;;;;;;2.83;1.73;;;;;;;18.46;44.71;101272.28;5018522;28;20029;-74
2021/01/27 02:02:08;;;;;;;2.72;1.88;;;;;;;18.46;44.83;101263.53;5017476;28;20026;-74
2021/01/27 02:04:53;;;;;;;2.40;1.60;;;;;;;18.42;44.38;101256.56;5019742;28;20041;-74
2021/01/27 02:07:19;;;;;;;3.20;1.48;;;;;;;18.44;44.16;101266.16;5029214;28;20047;-75
2021/01/27 02:09:44;;;;;;;2.28;1.52;;;;;;;18.44;44.76;101254.81;5015058;28;20485;-74
2021/01/27 02:12:47;;;;;;;2.38;1.77;;;;;;;18.44;44.30;101267.91;5008457;28;20037;-74
2021/01/27 02:15:39;;;;;;;2.95;1.77;;;;;;;18.43;44.48;101266.19;5022081;28;20025;-74
2021/01/27 02:18:11;;;;;;;2.17;1.42;;;;;;;18.42;44.18;101249.59;5024091;28;20035;-74
2021/01/27 02:20:46;;;;;;;2.28;2.08;;;;;;;18.41;44.44;101234.75;5022570;28;20022;-74
2021/01/27 02:23:14;;;;;;;2.15;1.65;;;;;;;18.42;44.51;101227.78;5028210;28;20029;-74
2021/01/27 02:25:54;;;;;;;2.08;1.52;;;;;;;18.40;44.31;101219.03;5021892;28;20502;-74
2021/01/27 02:28:58;;;;;;;2.47;1.75;;;;;;;18.40;44.04;101221.66;5026015;28;20033;-74
2021/01/27 02:31:36;;;;;;;2.58;1.73;;;;;;;18.38;44.28;101212.91;5013855;28;20528;-74
2021/01/27 02:34:36;;;;;;;3.28;1.90;;;;;;;18.40;44.57;101217.28;5020808;28;20036;-74
2021/01/27 02:37:10;;;;;;;2.70;1.65;;;;;;;18.37;44.25;101212.03;5027949;28;20029;-74
2021/01/27 02:39:49;;;;;;;2.42;1.60;;;;;;;18.38;44.60;101216.41;5028576;28;20029;-74
2021/01/27 02:42:23;;;;;;;1.83;1.50;;;;;;;18.35;44.14;101208.53;5017388;28;20109;-74
2021/01/27 02:44:48;;;;;;;2.50;1.92;;;;;;;18.37;44.15;101217.28;5017314;28;20064;-74
2021/01/27 02:47:20;;;;;;;2.78;1.83;;;;;;;18.34;44.24;101211.16;5015116;28;20061;-70
2021/01/27 02:49:54;;;;;;;1.67;1.48;;;;;;;18.32;44.25;101203.31;5026832;28;20080;-70
2021/01/27 02:52:24;;;;;;;3.15;2.08;;;;;;;18.32;44.32;101205.91;5027572;28;20033;-74
2021/01/27 02:55:05;;;;;;;2.95;1.73;;;;;;;18.32;43.96;101194.56;5018545;28;20095;-70
2021/01/27 02:58:06;;;;;;;2.65;2.15;;;;;;;18.34;44.01;101192.84;5023550;28;20487;-74
2021/01/27 03:00:36;;;;;;;2.22;1.65;;;;;;;18.29;44.37;101177.13;5017553;28;20038;-74
2021/01/27 03:03:11;;;;;;;1.73;1.20;;;;;;;18.31;44.48;101177.97;5025176;28;20026;-74
2021/01/27 03:05:41;;;;;;;2.72;1.92;;;;;;;18.30;44.30;101176.28;5016311;28;20041;-74
2021/01/27 03:08:14;;;;;;;2.65;1.63;;;;;;;18.30;44.11;101165.78;5027997;28;20025;-74
2021/01/27 03:10:46;;;;;;;2.50;1.90;;;;;;;18.31;44.15;101166.63;5018250;28;20029;-70
2021/01/27 03:13:12;;;;;;;2.35;1.90;;;;;;;18.29;43.86;101168.41;5021113;28;20112;-70
2021/01/27 03:15:38;;;;;;;2.03;1.50;;;;;;;18.29;44.25;101161.44;5015318;28;20024;-71
2021/01/27 03:18:12;;;;;;;2.25;1.55;;;;;;;18.27;44.21;101152.69;5016010;28;20149;-70
2021/01/27 03:20:40;;;;;;;2.30;2.00;;;;;;;18.30;44.13;101146.59;5022042;28;20022;-70
2021/01/27 03:23:09;;;;;;;2.38;1.75;;;;;;;18.28;44.05;101146.59;5018803;28;20033;-70
2021/01/27 03:25:43;;;;;;;2.83;1.52;;;;;;;18.28;44.34;101141.34;5022682;28;20021;-70
2021/01/27 03:28:22;;;;;;;2.45;1.70;;;;;;;18.28;44.34;101140.47;5019889;28;20017;-70
2021/01/27 03:30:47;;;;;;;1.90;1.35;;;;;;;18.24;44.40;101134.38;5014927;28;20029;-70
2021/01/27 03:33:25;;;;;;;2.70;1.90;;;;;;;18.27;43.93;101128.25;5020289;28;20373;-70
2021/01/27 03:35:55;;;;;;;3.25;2.33;;;;;;;18.26;44.21;101123.91;5015014;28;20022;-70
2021/01/27 03:38:36;;;;;;;2.03;1.60;;;;;;;18.25;44.06;101119.53;5015580;28;20025;-71
2021/01/27 03:41:14;;;;;;;2.72;1.83;;;;;;;18.25;44.03;101115.16;5019168;28;20033;-70
2021/01/27 03:44:06;;;;;;;1.88;1.60;;;;;;;18.25;43.94;101111.69;5014496;28;20030;-70
2021/01/27 03:47:00;;;;;;;1.92;1.58;;;;;;;18.25;44.08;101114.28;5032289;28;20113;-70
2021/01/27 03:49:29;;;;;;;1.80;1.58;;;;;;;18.24;43.96;101102.94;5016738;28;20028;-70
2021/01/27 03:52:05;;;;;;;2.65;1.75;;;;;;;18.25;44.20;101103.81;5018601;28;20030;-70
2021/01/27 03:54:34;;;;;;;2.10;1.90;;;;;;;18.23;43.98;101100.31;5016572;28;20017;-70
2021/01/27 03:57:01;;;;;;;2.58;1.60;;;;;;;18.23;44.14;101082.00;5015369;28;20037;-74
2021/01/27 03:59:28;;;;;;;2.40;1.73;;;;;;;18.23;44.14;101082.88;5013875;28;20022;-74
2021/01/27 04:01:56;;;;;;;2.35;1.67;;;;;;;18.21;43.92;101076.75;4999988;28;20037;-70
2021/01/27 04:04:23;;;;;;;2.20;1.65;;;;;;;18.20;43.89;101081.13;5014910;28;20038;-70
2021/01/27 04:06:48;;;;;;;2.10;1.45;;;;;;;18.20;43.99;101086.34;5024484;28;20025;-75
2021/01/27 04:09:14;;;;;;;1.88;1.50;;;;;;;18.20;43.88;101083.75;5013216;28;20431;-74
2021/01/27 04:11:40;;;;;;;3.60;1.95;;;;;;;18.18;44.27;101071.53;4999808;28;20061;-75
2021/01/27 04:14:06;;;;;;;1.95;1.33;;;;;;;18.19;44.37;101068.03;5027814;28;20025;-74
2021/01/27 04:16:32;;;;;;;2.08;1.40;;;;;;;18.15;44.27;101059.34;5017641;28;20029;-74
2021/01/27 04:19:00;;;;;;;1.98;1.40;;;;;;;18.15;44.17;101061.06;5014973;28;20033;-71
2021/01/27 04:21:25;;;;;;;3.78;1.40;;;;;;;18.17;44.24;101054.97;5018774;28;20057;-70
2021/01/27 04:23:51;;;;;;;1.83;1.38;;;;;;;18.16;44.01;101047.13;5008912;28;20479;-70
2021/01/27 04:26:18;;;;;;;2.75;1.35;;;;;;;18.18;44.10;101051.47;4995318;28;20040;-70
2021/01/27 04:28:43;;;;;;;1.98;1.35;;;;;;;18.17;43.94;101044.50;5031912;28;20029;-74
2021/01/27 04:31:09;;;;;;;2.03;1.42;;;;;;;18.16;43.92;101054.97;5013014;28;20037;-75
2021/01/27 04:33:35;;;;;;;1.95;1.30;;;;;;;18.15;44.48;101041.00;5001986;28;20079;-74
2021/01/27 04:36:00;;;;;;;1.95;1.30;;;;;;;18.15;43.94;101046.25;5021209;28;20097;-75
2021/01/27 04:38:26;;;;;;;1.40;1.02;;;;;;;18.15;43.92;101043.63;5008065;28;20124;-75
2021/01/27 04:40:55;;;;;;;1.88;1.27;;;;;;;18.13;43.97;101049.72;5013648;28;20041;-75
2021/01/27 04:43:23;;;;;;;2.30;1.50;;;;;;;18.13;44.66;101045.38;5017594;28;20034;-74
2021/01/27 04:46:01;;;;;;;1.60;1.20;;;;;;;18.13;44.41;101042.75;5013939;28;20033;-75
2021/01/27 04:48:40;;;;;;;2.10;1.52;;;;;;;18.12;44.61;101046.25;5020515;28;20025;-75
2021/01/27 04:51:10;;;;;;;1.80;1.40;;;;;;;18.11;44.48;101047.09;5030060;28;20033;-75
2021/01/27 04:54:04;;;;;;;1.50;1.13;;;;;;;18.11;44.11;101035.78;5018015;28;20072;-74
2021/01/27 04:56:45;;;;;;;1.95;1.67;;;;;;;18.10;44.20;101028.78;4991538;28;20046;-74
2021/01/27 04:59:38;;;;;;;1.38;1.27;;;;;;;18.09;44.45;101027.03;5015497;28;20022;-75
2021/01/27 05:02:47;;;;;;;3.03;1.50;;;;;;;18.10;44.20;101021.81;5024532;28;20037;-74
2021/01/27 05:05:18;;;;;;;1.58;1.17;;;;;;;18.10;44.53;101018.31;5007990;28;20249;-74
2021/01/27 05:07:43;;;;;;;1.55;1.05;;;;;;;18.11;44.40;101018.31;5015531;28;20028;-74
2021/01/27 05:10:13;;;;;;;2.35;1.60;;;;;;;18.18;44.43;101004.34;5021642;28;20104;-75
2021/01/27 05:13:15;;;;;;;1.40;1.20;;;;;;;18.33;43.68;101006.06;5016082;28;20025;-75
2021/01/27 05:15:40;;;;;;;1.38;0.90;;;;;;;18.36;43.79;100998.22;5014321;28;20115;-75
2021/01/27 05:18:06;;;;;;;1.67;1.27;;;;;;;18.32;43.96;100995.59;5001000;28;20038;-75
2021/01/27 05:20:32;;;;;;;2.00;1.27;;;;;;;18.38;44.06;100985.13;5016081;28;20037;-75
2021/01/27 05:22:58;;;;;;;1.58;1.08;;;;;;;18.48;43.73;100985.09;5001228;28;20041;-75
2021/01/27 05:25:39;;;;;;;1.92;1.30;;;;;;;18.48;43.56;100979.84;5020023;28;20037;-74
2021/01/27 05:28:08;;;;;;;1.73;1.20;;;;;;;18.46;44.20;100970.25;5016479;28;20013;-75
2021/01/27 05:30:50;;;;;;;1.60;1.05;;;;;;;18.53;44.15;100975.50;5021870;28;20026;-75
2021/01/27 05:33:15;;;;;;;1.58;1.00;;;;;;;18.55;43.89;100968.50;5020219;28;20438;-74
2021/01/27 05:35:40;;;;;;;1.83;1.40;;;;;;;18.53;43.97;100974.63;5011461;28;20033;-75
2021/01/27 05:38:27;;;;;;;1.55;1.05;;;;;;;18.54;43.92;100966.75;5013468;28;20471;-70
2021/01/27 05:41:05;;;;;;;1.65;1.00;;;;;;;18.63;43.89;100955.41;5020287;28;20037;-70
2021/01/27 05:43:32;;;;;;;1.48;1.00;;;;;;;18.61;43.79;100945.81;5016087;28;20056;-70
2021/01/27 05:46:14;;;;;;;1.35;0.90;;;;;;;18.67;44.05;100944.06;5014881;28;20567;-71
2021/01/27 05:48:51;;;;;;;1.40;1.13;;;;;;;18.78;43.57;100950.13;5021030;28;20033;-71
2021/01/27 05:51:38;;;;;;;0.95;0.85;;;;;;;18.81;43.46;100938.75;5019232;28;20034;-71
2021/01/27 05:54:20;;;;;;;1.02;0.82;;;;;;;18.75;43.93;100941.38;5025464;28;20030;-75
2021/01/27 05:56:46;;;;;;;0.95;0.82;;;;;;;18.80;43.82;100937.00;5024018;28;20025;-75
2021/01/27 05:59:22;;;;;;;1.08;0.80;;;;;;;18.87;43.38;100947.44;5016936;28;20049;-71
2021/01/27 06:01:50;;;;;;;1.38;1.10;;;;;;;18.86;43.59;100947.44;5021847;28;20026;-74
2021/01/27 06:04:24;;;;;;;1.00;0.88;;;;;;;18.86;43.78;100943.06;5017994;28;20041;-71
2021/01/27 06:06:49;;;;;;;1.10;0.93;;;;;;;18.89;43.54;100937.81;5019373;28;20093;-71
2021/01/27 06:09:27;;;;;;;1.27;0.90;;;;;;;18.86;43.38;100935.22;5019332;28;20434;-71
2021/01/27 06:12:30;;;;;;;2.42;0.80;;;;;;;18.86;43.62;100950.94;5011014;28;20022;-71
2021/01/27 06:15:05;;;;;;;2.88;1.00;;;;;;;18.83;43.62;100942.22;5017626;28;20029;-71
2021/01/27 06:17:44;;;;;;;1.00;0.70;;;;;;;18.86;43.54;100948.31;5023334;28;20079;-71
2021/01/27 06:20:15;;;;;;;5.63;1.30;;;;;;;18.84;43.75;100936.97;5017022;28;20482;-73
2021/01/27 06:22:40;;;;;;;2.83;0.95;;;;;;;18.80;43.84;100919.53;5018976;28;20021;-73
2021/01/27 06:25:09;;;;;;;1.25;0.82;;;;;;;18.82;43.93;100896.81;5018473;28;20391;-72
2021/01/27 06:28:14;;;;;;;1.40;0.65;;;;;;;18.81;43.92;100896.84;5016592;28;20025;-73
2021/01/27 06:30:42;;;;;;;1.88;1.10;;;;;;;18.79;43.83;100895.97;5022839;28;20769;-73
2021/01/27 06:33:26;;;;;;;1.35;0.80;;;;;;;18.79;44.09;100888.97;5022091;28;20117;-77
2021/01/27 06:36:10;;;;;;;1.10;0.73;;;;;;;18.82;44.01;100902.06;5018851;28;20029;-76
2021/01/27 06:38:48;;;;;;;1.40;0.88;;;;;;;18.80;44.39;100887.22;5018478;28;20025;-72
2021/01/27 06:41:34;;;;;;;1.00;0.90;;;;;;;18.87;44.12;100894.16;5018321;28;20033;-73
2021/01/27 06:44:16;;;;;;;1.27;0.75;;;;;;;18.85;44.22;100896.78;5021664;28;20035;-71
2021/01/27 06:47:12;;;;;;;1.38;0.90;;;;;;;18.83;44.48;100895.03;5017524;28;20025;-70
2021/01/27 06:50:01;;;;;;;1.55;1.25;;;;;;;18.87;44.43;100904.63;5017441;28;20495;-70
2021/01/27 06:52:52;;;;;;;1.48;0.70;;;;;;;18.86;44.38;100910.75;5020472;28;20042;-72
2021/01/27 06:55:23;;;;;;;2.00;0.93;;;;;;;18.83;44.59;100911.63;5025007;28;20047;-72
2021/01/27 06:58:07;;;;;;;1.13;0.88;;;;;;;18.86;44.22;100902.91;5015438;28;20452;-72
2021/01/27 07:00:58;;;;;;;1.25;0.88;;;;;;;18.84;44.40;100892.41;5027388;28;20033;-72
2021/01/27 07:04:12;;;;;;;2.03;1.10;;;;;;;18.82;44.41;100896.81;5023283;28;20040;-72
2021/01/27 07:06:59;;;;;;;1.25;0.73;;;;;;;18.84;44.58;100891.56;5020870;28;20041;-72
2021/01/27 07:09:45;;;;;;;1.05;0.70;;;;;;;18.87;44.27;100895.03;5020651;28;20072;-77
2021/01/27 07:12:39;;;;;;;1.67;0.90;;;;;;;18.82;44.41;100890.72;5017535;28;20079;-73
2021/01/27 07:15:25;;;;;;;0.93;0.60;;;;;;;18.90;44.38;100899.38;5017589;28;20040;-72
2021/01/27 07:18:14;;;;;;;2.45;1.20;;;;;;;18.87;44.29;100892.41;5018623;28;20068;-73
2021/01/27 07:21:10;;;;;;;2.55;1.05;;;;;;;18.81;44.31;100894.22;5014819;28;20040;-73
2021/01/27 07:24:01;;;;;;;1.10;0.73;;;;;;;18.86;44.21;100902.91;5019120;28;20021;-73
2021/01/27 07:26:46;;;;;;;1.23;0.70;;;;;;;18.86;44.33;100898.53;5018891;28;20036;-73
2021/01/27 07:29:21;;;;;;;1.50;0.90;;;;;;;18.82;44.30;100904.69;5023989;28;20511;-73
2021/01/27 07:31:57;;;;;;;1.85;0.80;;;;;;;18.81;44.31;100899.44;5020735;28;20504;-73
2021/01/27 07:35:08;;;;;;;1.73;0.88;;;;;;;18.75;44.10;100902.09;5018975;28;20036;-72
2021/01/27 07:37:48;;;;;;;1.88;0.88;;;;;;;18.71;44.40;100887.25;4999476;28;20515;-72
2021/01/27 07:40:22;;;;;;;4.72;1.08;;;;;;;18.70;44.50;100891.63;5020851;28;20469;-72
2021/01/27 07:43:01;;;;;;;1.88;0.90;;;;;;;18.71;44.72;100902.97;5016737;28;20022;-73
2021/01/27 07:45:37;;;;;;;0.77;0.70;;;;;;;18.70;44.87;100902.09;5020824;28;20518;-73
2021/01/27 07:48:18;;;;;;;2.22;0.80;;;;;;;18.72;44.54;100908.22;5017653;28;20033;-75
2021/01/27 07:50:57;;;;;;;1.45;0.70;;;;;;;18.76;44.45;100909.06;5015700;28;20049;-72
2021/01/27 07:53:40;;;;;;;2.15;0.70;;;;;;;18.75;44.64;100902.09;5020114;28;20109;-72
2021/01/27 07:56:12;;;;;;;;;;;;;;;18.78;44.55;100902.94;5022847;28;20108;-72
2021/01/27 07:58:51;;;;;;;1.90;0.88;;;;;;;18.81;44.21;100907.31;5020174;28;19913;-72
2021/01/27 08:01:19;;;;;;;1.17;0.95;;;;;;;18.78;44.37;100902.94;5016434;28;20072;-71
2021/01/27 08:03:57;;;;;;;1.20;0.90;;;;;;;18.82;44.30;100909.06;5019192;28;20468;-71
2021/01/27 08:06:28;;;;;;;1.33;0.85;;;;;;;18.85;44.39;100912.50;5019044;28;20133;-72
2021/01/27 08:09:02;;;;;;;0.77;0.70;;;;;;;18.87;44.26;100917.75;5017608;28;20025;-72
2021/01/27 08:11:29;;;;;;;0.75;0.68;;;;;;;18.84;43.91;100921.25;5015502;28;20082;-72
2021/01/27 08:13:55;;;;;;;1.15;0.85;;;;;;;18.86;44.24;100913.38;5015091;28;20025;-72
2021/01/27 08:16:34;;;;;;;1.38;0.50;;;;;;;18.89;44.17;100922.09;5019990;28;21940;-72
2021/01/27 08:19:10;;;;;;;0.90;0.60;;;;;;;18.81;44.16;100907.31;5020609;28;20021;-73
2021/01/27 08:21:44;;;;;;;1.17;0.70;;;;;;;18.89;44.29;100919.47;5026742;28;20026;-73
2021/01/27 08:24:29;;;;;;;0.68;0.47;;;;;;;18.86;44.00;100911.63;5022366;28;20034;-71
2021/01/27 08:26:55;;;;;;;1.08;0.70;;;;;;;18.89;44.06;100911.63;5017555;28;20126;-73
2021/01/27 08:29:29;;;;;;;1.13;0.77;;;;;;;18.87;44.11;100897.66;5019187;28;20089;-73
2021/01/27 08:32:30;;;;;;;1.90;0.90;;;;;;;18.94;44.11;100902.88;5019412;28;20485;-73
2021/01/27 08:35:06;;;;;;;1.48;1.02;;;;;;;18.91;44.14;100904.63;5017325;28;20080;-72
2021/01/27 08:37:40;;;;;;;1.10;0.60;;;;;;;18.91;44.29;100899.38;5018171;28;20446;-72
2021/01/27 08:40:30;;;;;;;1.08;0.88;;;;;;;18.93;44.03;100904.63;5039107;28;20444;-73
2021/01/27 08:42:59;;;;;;;0.55;0.55;;;;;;;18.92;44.20;100905.50;5015502;28;20029;-72
2021/01/27 08:45:31;;;;;;;0.90;0.77;;;;;;;18.90;44.13;100907.25;5018139;28;20038;-72
2021/01/27 08:48:01;;;;;;;0.60;0.60;;;;;;;18.96;43.94;100917.69;5023540;28;20514;-72
2021/01/27 08:50:52;;;;;;;0.90;0.45;;;;;;;18.96;44.12;100915.06;5020947;28;20055;-73
2021/01/27 08:53:27;;;;;;;1.42;0.68;;;;;;;18.92;43.98;100914.22;5016988;28;20083;-73
2021/01/27 08:55:57;;;;;;;1.80;0.85;;;;;;;18.96;43.90;100911.56;5018829;28;20029;-73
2021/01/27 08:58:33;;;;;;;0.68;0.68;;;;;;;18.94;43.99;100911.59;5015651;28;20076;-73
2021/01/27 09:01:12;;;;;;;0.95;0.52;;;;;;;18.92;44.07;100911.63;5017735;28;20177;-73
2021/01/27 09:03:37;;;;;;;0.80;0.60;;;;;;;18.99;43.95;100919.41;5021376;28;20021;-72
2021/01/27 09:06:05;;;;;;;1.15;0.73;;;;;;;19.00;44.10;100918.53;5021433;28;20199;-72
2021/01/27 09:08:32;;;;;;;0.60;0.50;;;;;;;18.98;44.01;100925.53;5009435;28;20414;-72
2021/01/27 09:11:02;;;;;;;0.80;0.70;;;;;;;18.97;44.01;100923.78;5023709;28;20025;-73
2021/01/27 09:13:38;;;;;;;1.65;0.65;;;;;;;18.95;44.22;100922.97;5021431;28;20032;-72
2021/01/27 09:16:08;;;;;;;1.25;0.70;;;;;;;18.91;44.10;100922.97;5022651;28;20108;-72
2021/01/27 09:18:35;;;;;;;0.98;0.60;;;;;;;18.89;44.19;100935.19;5019308;28;20096;-73
2021/01/27 09:21:16;;;;;;;0.93;0.70;;;;;;;18.85;44.50;100930.84;5001981;28;20041;-72
2021/01/27 09:23:43;;;;;;;0.70;0.50;;;;;;;18.83;44.28;100939.59;5021122;28;20029;-72
2021/01/27 09:26:21;;;;;;;1.05;0.65;;;;;;;18.82;44.46;100941.38;5021463;28;20064;-72
2021/01/27 09:28:48;;;;;;;0.77;0.60;;;;;;;18.80;44.71;100940.50;5018764;28;20025;-72
2021/01/27 09:31:19;;;;;;;0.63;0.50;;;;;;;18.82;44.50;100954.47;5014032;28;20024;-71
2021/01/27 09:33:47;;;;;;;0.82;0.60;;;;;;;18.82;44.48;100957.09;5013561;28;20041;-72
2021/01/27 09:36:21;;;;;;;1.30;0.70;;;;;;;18.92;44.43;100961.41;5012180;28;20040;-72
2021/01/27 09:38:56;;;;;;;0.50;0.50;;;;;;;18.98;44.20;100968.34;5017161;28;20033;-72
2021/01/27 09:41:28;;;;;;;1.13;0.70;;;;;;;18.97;44.13;100966.59;5013015;28;20120;-72
2021/01/27 09:43:54;;;;;;;0.85;0.63;;;;;;;19.05;43.95;100969.19;5014035;28;20036;-73
2021/01/27 09:46:29;;;;;;;3.72;1.42;;;;;;;19.09;44.09;100966.53;5028317;28;20479;-73
2021/01/27 09:49:04;;;;;;;1.10;0.70;;;;;;;19.06;44.03;100973.56;5019517;28;20092;-73
2021/01/27 09:51:31;;;;;;;1.20;0.55;;;;;;;19.11;44.12;100979.63;5021758;28;20031;-73
2021/01/27 09:54:00;;;;;;;0.90;0.63;;;;;;;19.13;44.05;100983.13;5010537;28;20075;-73
2021/01/27 09:56:27;;;;;;;0.60;0.60;;;;;;;19.10;44.08;100976.13;5023681;28;20029;-72
2021/01/27 09:58:54;;;;;;;0.98;0.80;;;;;;;19.11;44.12;100980.50;5019791;28;20038;-73
2021/01/27 10:01:26;;;;;;;0.73;0.60;;;;;;;19.19;44.09;100998.84;5005748;28;20030;-74
2021/01/27 10:03:55;;;;;;;1.07;0.60;;;;;;;19.14;43.90;100990.13;5027520;28;20037;-73
2021/01/27 10:06:52;;;;;;;0.50;0.50;;;;;;;19.14;44.03;100997.97;5032221;28;20034;-74
2021/01/27 10:09:28;;;;;;;3.42;1.38;;;;;;;19.18;44.04;100997.09;5024540;28;20105;-73
2021/01/27 10:12:06;;;;;;;1.48;0.85;;;;;;;19.18;43.99;101008.44;5022457;28;20036;-73
2021/01/27 10:14:37;;;;;;;0.82;0.60;;;;;;;19.17;44.00;101014.56;5023682;28;20029;-74
2021/01/27 10:17:06;;;;;;;0.50;0.47;;;;;;;19.17;44.16;101001.47;5028415;28;20021;-73
2021/01/27 10:19:47;;;;;;;0.80;0.50;;;;;;;19.22;43.75;101011.91;5026846;28;20044;-73
2021/01/27 10:22:14;;;;;;;0.82;0.63;;;;;;;19.21;44.28;101015.44;5019348;28;20539;-74
2021/01/27 10:24:49;;;;;;;0.95;0.57;;;;;;;19.22;44.17;101015.41;5016991;28;20518;-74
2021/01/27 10:27:34;;;;;;;1.20;0.60;;;;;;;19.26;44.11;101021.50;5017537;28;20057;-73
2021/01/27 10:30:03;;;;;;;1.35;0.70;;;;;;;19.22;44.14;101022.38;5023114;28;20035;-74
2021/01/27 10:32:34;;;;;;;2.55;0.82;;;;;;;19.25;44.13;101020.63;5009363;28;20057;-73
2021/01/27 10:35:01;;;;;;;1.88;0.75;;;;;;;19.26;44.05;101026.75;5021390;28;20054;-73
2021/01/27 10:37:37;;;;;;;0.85;0.57;;;;;;;19.23;44.07;101019.75;5018308;28;20025;-73
2021/01/27 10:40:17;;;;;;;1.73;0.57;;;;;;;19.27;44.27;101037.22;5037761;28;20026;-73
2021/01/27 10:42:54;;;;;;;0.80;0.50;;;;;;;19.29;44.16;101031.97;5021614;28;20034;-74
2021/01/27 10:45:29;;;;;;;0.65;0.40;;;;;;;19.26;43.95;101032.88;5014731;28;20050;-73
2021/01/27 10:48:13;;;;;;;1.25;0.70;;;;;;;19.28;44.21;101038.97;5018727;28;20022;-73
2021/01/27 10:50:44;;;;;;;0.40;0.40;;;;;;;19.32;44.09;101039.84;5019745;28;20060;-73
2021/01/27 10:53:12;;;;;;;1.95;0.63;;;;;;;19.30;44.14;101032.84;5024621;28;20040;-73
2021/01/27 10:55:41;;;;;;;1.63;0.88;;;;;;;19.28;44.21;101041.59;5020770;28;20392;-74
2021/01/27 10:58:14;;;;;;;1.65;0.60;;;;;;;19.29;44.00;101034.59;5011707;28;20057;-73
2021/01/27 11:00:40;;;;;;;;;;;;;;;19.32;44.01;101049.47;5017347;28;20025;-73
2021/01/27 11:03:07;;;;;;;1.23;0.60;;;;;;;19.26;44.17;101043.34;5005182;28;20046;-74
2021/01/27 11:05:33;;;;;;;0.65;0.65;;;;;;;19.19;44.32;101038.16;5019382;28;20131;-73
2021/01/27 11:07:59;;;;;;;1.45;0.80;;;;;;;19.14;44.44;101030.31;4997001;28;20468;-74
2021/01/27 11:10:27;;;;;;;0.70;0.52;;;;;;;19.11;44.36;101030.31;5018755;28;20018;-73
2021/01/27 11:12:52;;;;;;;1.45;0.70;;;;;;;19.10;44.59;101028.56;5025441;28;20087;-73
2021/01/27 11:15:18;;;;;;;2.15;0.77;;;;;;;19.07;44.66;101030.34;5016527;28;20030;-73
2021/01/27 11:17:43;;;;;;;1.10;0.77;;;;;;;19.05;45.03;101038.22;5014311;28;20116;-73
2021/01/27 11:20:10;;;;;;;1.17;0.60;;;;;;;19.02;44.81;101032.09;5020900;28;20029;-73
2021/01/27 11:22:35;;;;;;;1.92;0.50;;;;;;;19.02;44.65;101035.59;5014017;28;20037;-73
2021/01/27 11:25:01;;;;;;;1.40;0.80;;;;;;;19.01;44.83;101033.84;5033692;28;20037;-73
2021/01/27 11:27:26;;;;;;;1.30;0.70;;;;;;;18.97;44.99;101031.25;5021974;28;20025;-73
2021/01/27 11:29:52;;;;;;;1.40;0.80;;;;;;;18.97;44.93;101028.63;5017104;28;20037;-73
2021/01/27 11:32:18;;;;;;;0.95;0.70;;;;;;;18.96;44.89;101021.63;5023170;28;20026;-73
2021/01/27 11:34:43;;;;;;;1.27;0.70;;;;;;;18.88;44.82;101014.69;5016079;28;20040;-73
2021/01/27 11:37:10;;;;;;;1.25;0.85;;;;;;;18.90;45.02;101022.56;5013516;28;21330;-73
2021/01/27 11:39:35;;;;;;;1.00;0.68;;;;;;;18.92;44.94;101023.41;5008270;28;20072;-74
2021/01/27 11:42:01;;;;;;;0.85;0.55;;;;;;;18.91;45.02;101027.78;5006359;28;20057;-73
2021/01/27 11:44:26;;;;;;;1.35;0.70;;;;;;;18.89;45.04;101028.66;5005380;28;20113;-73
2021/01/27 11:46:52;;;;;;;0.90;0.70;;;;;;;18.84;45.37;101022.56;5019346;28;20025;-72
2021/01/27 11:49:17;;;;;;;1.95;0.93;;;;;;;18.91;44.78;101024.28;4999888;28;20042;-73
2021/01/27 11:51:43;;;;;;;2.28;0.98;;;;;;;18.94;45.08;101036.53;5009283;28;20034;-71
2021/01/27 11:54:08;;;;;;;1.40;0.85;;;;;;;18.98;44.97;101031.25;5015884;28;20037;-72
2021/01/27 11:56:33;;;;;;;0.68;0.60;;;;;;;19.08;44.57;101025.09;4999367;28;20125;-73